createdAt,value
2023-02-17T00:01:40.718Z,101992.75
2023-02-17T00:04:09.021Z,101979.31
2023-02-17T00:06:38.054Z,101986.00
2023-02-17T00:09:06.357Z,101993.00
2023-02-17T00:11:34.888Z,101981.38
2023-02-17T00:14:03.209Z,101978.66
2023-02-17T00:16:33.064Z,101979.94
2023-02-17T00:19:24.882Z,101981.97
2023-02-17T00:21:55.790Z,101973.50
2023-02-17T00:24:24.675Z,101973.66
2023-02-17T00:26:53.203Z,101960.44
2023-02-17T00:29:21.585Z,101977.63
2023-02-17T00:31:50.081Z,101970.44
2023-02-17T00:34:20.073Z,101978.56
2023-02-17T00:36:48.683Z,101975.50
2023-02-17T00:39:18.617Z,101972.00
2023-02-17T00:41:46.934Z,101980.91
2023-02-17T00:44:19.262Z,101966.94
2023-02-17T00:46:48.541Z,101967.53
2023-02-17T00:49:21.361Z,101969.44
2023-02-17T00:51:50.653Z,101965.94
2023-02-17T00:54:20.174Z,101965.94
2023-02-17T00:56:48.650Z,101971.34
2023-02-17T00:59:17.071Z,101965.94
2023-02-17T01:01:45.627Z,101969.44
2023-02-17T01:04:14.191Z,101963.22
2023-02-17T01:06:44.268Z,101960.03
2023-02-17T01:09:15.723Z,101956.88
2023-02-17T01:11:44.319Z,101962.63
2023-02-17T01:14:15.284Z,101953.88
2023-02-17T01:16:47.670Z,101948.00
2023-02-17T01:19:19.602Z,101941.31
2023-02-17T01:21:49.408Z,101937.03
2023-02-17T01:24:17.795Z,101944.03
2023-02-17T01:26:46.210Z,101944.03
2023-02-17T01:29:14.516Z,101941.78
2023-02-17T01:31:42.839Z,101936.38
2023-02-17T01:34:12.713Z,101935.56
2023-02-17T01:36:41.302Z,101933.19
2023-02-17T01:39:14.614Z,101927.78
2023-02-17T01:41:43.694Z,101934.44
2023-02-17T01:44:18.567Z,101934.13
2023-02-17T01:46:49.780Z,101930.63
2023-02-17T01:49:36.061Z,101917.19
2023-02-17T01:52:14.002Z,101914.16
2023-02-17T01:54:47.656Z,101903.78
2023-02-17T01:57:20.655Z,101911.22
2023-02-17T01:59:49.975Z,101902.75
2023-02-17T02:02:18.952Z,101904.38
2023-02-17T02:04:51.162Z,101906.28
2023-02-17T02:07:22.794Z,101906.75
2023-02-17T02:09:56.128Z,101904.47
2023-02-17T02:12:27.509Z,101908.78
2023-02-17T02:15:00.594Z,101906.06
2023-02-17T02:17:37.178Z,101908.78
2023-02-17T02:20:35.212Z,101906.06
2023-02-17T02:23:31.780Z,101903.84
2023-02-17T02:26:34.822Z,101906.56
2023-02-17T02:29:40.802Z,101894.56
2023-02-17T02:32:49.628Z,101889.16
2023-02-17T02:35:24.375Z,101898.41
2023-02-17T02:37:59.692Z,101895.69
2023-02-17T02:40:34.272Z,101894.91
2023-02-17T02:43:05.225Z,101889.00
2023-02-17T02:45:35.064Z,101884.38
2023-02-17T02:48:05.175Z,101883.72
2023-02-17T02:50:58.196Z,101881.03
2023-02-17T02:53:58.987Z,101873.69
2023-02-17T02:56:41.805Z,101867.47
2023-02-17T02:59:25.347Z,101865.09
2023-02-17T03:02:06.487Z,101855.81
2023-02-17T03:04:39.117Z,101847.69
2023-02-17T03:07:21.292Z,101857.25
2023-02-17T03:09:51.307Z,101851.03
2023-02-17T03:12:19.861Z,101848.69
2023-02-17T03:14:49.611Z,101849.13
2023-02-17T03:17:18.083Z,101845.63
2023-02-17T03:19:48.135Z,101844.84
2023-02-17T03:22:21.625Z,101840.19
2023-02-17T03:24:50.117Z,101834.47
2023-02-17T03:27:18.703Z,101830.63
2023-02-17T03:29:47.099Z,101824.41
2023-02-17T03:32:15.506Z,101822.00
2023-02-17T03:34:43.842Z,101831.44
2023-02-17T03:37:13.577Z,101828.72
2023-02-17T03:39:41.961Z,101835.56
2023-02-17T03:42:10.252Z,101834.00
2023-02-17T03:44:38.640Z,101838.63
2023-02-17T03:47:07.248Z,101843.28
2023-02-17T03:49:36.053Z,101855.69
2023-02-17T03:52:05.287Z,101862.69
2023-02-17T03:54:35.192Z,101867.47
2023-02-17T03:57:03.506Z,101860.13
2023-02-17T03:59:31.928Z,101858.19
2023-02-17T04:02:00.248Z,101854.38
2023-02-17T04:04:28.579Z,101851.19
2023-02-17T04:06:57.015Z,101849.13
2023-02-17T04:09:25.334Z,101843.69
2023-02-17T04:11:54.960Z,101854.13
2023-02-17T04:14:23.365Z,101855.25
2023-02-17T04:16:51.730Z,101852.53
2023-02-17T04:19:21.297Z,101848.34
2023-02-17T04:21:49.757Z,101849.13
2023-02-17T04:24:18.074Z,101858.06
2023-02-17T04:26:46.431Z,101858.38
2023-02-17T04:29:16.352Z,101842.91
2023-02-17T04:31:44.799Z,101859.97
2023-02-17T04:34:13.181Z,101855.69
2023-02-17T04:36:44.015Z,101852.97
2023-02-17T04:39:12.383Z,101880.06
2023-02-17T04:41:40.713Z,101882.00
2023-02-17T04:44:09.081Z,101879.97
2023-02-17T04:46:38.778Z,101874.84
2023-02-17T04:49:07.133Z,101871.06
2023-02-17T04:51:35.858Z,101866.72
2023-02-17T04:54:04.191Z,101862.09
2023-02-17T04:56:32.470Z,101867.84
2023-02-17T04:59:00.865Z,101867.84
2023-02-17T05:01:29.245Z,101862.75
2023-02-17T05:03:59.033Z,101855.34
2023-02-17T05:06:27.385Z,101858.03
2023-02-17T05:08:55.845Z,101861.84
2023-02-17T05:11:24.272Z,101861.84
2023-02-17T05:13:53.461Z,101855.19
2023-02-17T05:16:21.828Z,101863.31
2023-02-17T05:18:50.242Z,101854.06
2023-02-17T05:21:19.912Z,101839.72
2023-02-17T05:23:48.217Z,101829.66
2023-02-17T05:26:16.612Z,101819.50
2023-02-17T05:28:44.942Z,101820.28
2023-02-17T05:31:13.745Z,101817.91
2023-02-17T05:33:42.184Z,101827.94
2023-02-17T05:36:12.368Z,101839.59
2023-02-17T05:38:42.105Z,101834.16
2023-02-17T05:41:10.426Z,101836.53
2023-02-17T05:43:38.887Z,101830.34
2023-02-17T05:46:08.038Z,101839.59
2023-02-17T05:48:36.681Z,101838.78
2023-02-17T05:51:06.116Z,101844.22
2023-02-17T05:53:34.487Z,101842.28
2023-02-17T05:56:04.832Z,101823.53
2023-02-17T05:58:33.431Z,101835.78
2023-02-17T06:01:02.071Z,101836.75
2023-02-17T06:03:30.475Z,101843.41
2023-02-17T06:05:58.887Z,101831.78
2023-02-17T06:08:27.280Z,101842.63
2023-02-17T06:10:55.875Z,101822.88
2023-02-17T06:13:25.718Z,101835.63
2023-02-17T06:15:54.168Z,101842.50
2023-02-17T06:18:22.500Z,101845.22
2023-02-17T06:20:51.231Z,101847.25
2023-02-17T06:23:19.716Z,101847.25
2023-02-17T06:25:48.127Z,101846.47
2023-02-17T06:28:16.494Z,101848.38
2023-02-17T06:30:46.992Z,101848.03
2023-02-17T06:33:15.320Z,101851.25
2023-02-17T06:35:44.530Z,101858.09
2023-02-17T06:38:12.998Z,101843.28
2023-02-17T06:40:41.518Z,101822.63
2023-02-17T06:43:11.170Z,101822.47
2023-02-17T06:45:39.580Z,101823.16
2023-02-17T06:48:09.591Z,101825.53
2023-02-17T06:50:38.046Z,101832.06
2023-02-17T06:53:06.653Z,101838.94
2023-02-17T06:55:35.422Z,101835.44
2023-02-17T06:58:03.804Z,101824.63
2023-02-17T07:00:32.480Z,101828.75
2023-02-17T07:03:00.993Z,101836.53
2023-02-17T07:05:30.770Z,101838.16
2023-02-17T07:07:59.273Z,101828.91
2023-02-17T07:10:27.586Z,101840.22
2023-02-17T07:12:55.975Z,101837.97
2023-02-17T07:15:24.284Z,101836.84
2023-02-17T07:17:52.596Z,101838.41
2023-02-17T07:20:21.350Z,101835.03
2023-02-17T07:22:51.093Z,101833.91
2023-02-17T07:25:19.612Z,101834.38
2023-02-17T07:27:48.253Z,101830.53
2023-02-17T07:30:17.679Z,101833.69
2023-02-17T07:32:46.298Z,101835.78
2023-02-17T07:35:14.755Z,101848.16
2023-02-17T07:37:43.097Z,101855.63
2023-02-17T07:40:14.041Z,101848.00
2023-02-17T07:42:42.399Z,101836.81
2023-02-17T07:45:11.038Z,101831.50
2023-02-17T07:47:39.395Z,101836.28
2023-02-17T07:50:09.510Z,101821.59
2023-02-17T07:52:37.893Z,101833.81
2023-02-17T07:55:07.163Z,101831.50
2023-02-17T07:57:36.893Z,101827.69
2023-02-17T08:00:08.700Z,101836.75
2023-02-17T08:02:38.845Z,101827.16
2023-02-17T08:05:07.476Z,101835.28
2023-02-17T08:07:35.817Z,101824.09
2023-02-17T08:10:21.170Z,101835.88
2023-02-17T08:13:08.241Z,101833.28
2023-02-17T08:15:37.068Z,101821.63
2023-02-17T08:18:06.572Z,101831.00
2023-02-17T08:20:35.468Z,101831.13
2023-02-17T08:23:04.718Z,101841.31
2023-02-17T08:25:34.733Z,101835.56
2023-02-17T08:28:06.796Z,101836.78
2023-02-17T08:30:38.467Z,101842.66
2023-02-17T08:33:09.055Z,101840.91
2023-02-17T08:35:38.118Z,101832.38
2023-02-17T08:38:09.195Z,101828.25
2023-02-17T08:40:37.546Z,101831.97
2023-02-17T08:43:09.155Z,101832.75
2023-02-17T08:45:37.724Z,101840.56
2023-02-17T08:48:07.136Z,101837.16
2023-02-17T08:50:35.499Z,101839.88
2023-02-17T08:53:03.848Z,101843.84
2023-02-17T08:55:47.366Z,101846.56
2023-02-17T08:58:18.209Z,101854.00
2023-02-17T09:00:46.725Z,101840.13
2023-02-17T09:03:15.231Z,101837.84
2023-02-17T09:05:43.970Z,101835.25
2023-02-17T09:08:13.625Z,101838.88
2023-02-17T09:10:42.064Z,101838.19
2023-02-17T09:13:10.480Z,101839.09
2023-02-17T09:15:40.322Z,101846.22
2023-02-17T09:18:08.762Z,101849.72
2023-02-17T09:20:39.585Z,101850.16
2023-02-17T09:23:08.395Z,101841.78
2023-02-17T09:25:36.781Z,101850.84
2023-02-17T09:28:07.983Z,101853.75
2023-02-17T09:30:36.641Z,101855.00
2023-02-17T09:33:06.611Z,101857.47
2023-02-17T09:35:35.192Z,101851.25
2023-02-17T09:38:03.606Z,101851.81
2023-02-17T09:40:43.106Z,101867.47
2023-02-17T09:43:16.908Z,101865.94
2023-02-17T09:45:50.735Z,101872.19
2023-02-17T09:48:25.644Z,101854.41
2023-02-17T09:50:58.169Z,101867.66
2023-02-17T09:53:32.745Z,101877.75
2023-02-17T09:56:05.395Z,101888.91
2023-02-17T09:58:40.085Z,101889.09
2023-02-17T10:01:17.857Z,101883.09
2023-02-17T10:03:54.910Z,101874.88
2023-02-17T10:06:27.866Z,101883.72
2023-02-17T10:09:05.054Z,101867.94
2023-02-17T10:11:36.619Z,101875.50
2023-02-17T10:14:12.746Z,101886.44
2023-02-17T10:16:48.845Z,101880.22
2023-02-17T10:19:24.191Z,101893.47
2023-02-17T10:22:00.145Z,101889.66
2023-02-17T10:24:28.497Z,101894.63
2023-02-17T10:27:11.595Z,101910.59
2023-02-17T10:29:52.744Z,101912.19
2023-02-17T10:32:24.085Z,101909.78
2023-02-17T10:35:13.876Z,101894.25
2023-02-17T10:37:50.037Z,101894.25
2023-02-17T10:40:23.140Z,101889.31
2023-02-17T10:42:55.762Z,101906.16
2023-02-17T10:45:32.038Z,101904.28
2023-02-17T10:48:06.002Z,101891.50
2023-02-17T10:50:38.623Z,101885.38
2023-02-17T10:53:14.894Z,101892.81
2023-02-17T10:55:55.074Z,101894.13
2023-02-17T10:58:29.078Z,101892.75
2023-02-17T11:00:58.131Z,101892.13
2023-02-17T11:03:30.051Z,101893.94
2023-02-17T11:06:02.914Z,101874.28
2023-02-17T11:08:35.882Z,101873.53
2023-02-17T11:11:07.785Z,101870.56
2023-02-17T11:13:40.055Z,101862.94
2023-02-17T11:16:09.152Z,101865.00
2023-02-17T11:18:42.790Z,101864.00
2023-02-17T11:21:13.393Z,101853.88
2023-02-17T11:23:51.117Z,101863.25
2023-02-17T11:26:23.929Z,101870.81
2023-02-17T11:28:52.266Z,101875.81
2023-02-17T11:31:26.565Z,101875.38
2023-02-17T11:33:56.898Z,101888.56
2023-02-17T11:36:29.994Z,101884.94
2023-02-17T11:39:00.841Z,101877.50
2023-02-17T11:41:40.142Z,101872.84
2023-02-17T11:44:12.460Z,101846.75
2023-02-17T11:46:47.630Z,101830.41
2023-02-17T11:49:56.486Z,101834.34
2023-02-17T11:52:43.526Z,101809.94
2023-02-17T11:55:22.599Z,101810.97
2023-02-17T11:58:20.093Z,101804.19
2023-02-17T12:00:55.606Z,101802.47
2023-02-17T12:04:21.476Z,101821.13
2023-02-17T12:07:08.133Z,101812.72
2023-02-17T12:09:50.432Z,101816.31
2023-02-17T12:12:25.334Z,101821.47
2023-02-17T12:15:11.741Z,101829.56
2023-02-17T12:17:51.489Z,101816.69
2023-02-17T12:20:41.621Z,101835.69
2023-02-17T12:23:31.758Z,101824.09
2023-02-17T12:26:13.005Z,101820.34
2023-02-17T12:29:02.173Z,101833.69
2023-02-17T12:32:05.395Z,101824.72
2023-02-17T12:34:38.299Z,101821.13
2023-02-17T12:37:09.209Z,101821.78
2023-02-17T12:39:44.417Z,101831.84
2023-02-17T12:42:20.596Z,101813.00
2023-02-17T12:44:55.469Z,101814.06
2023-02-17T12:47:32.459Z,101812.00
2023-02-17T12:50:05.998Z,101816.59
2023-02-17T12:52:39.843Z,101825.59
2023-02-17T12:55:20.947Z,101837.63
2023-02-17T12:57:57.048Z,101843.19
2023-02-17T13:00:30.750Z,101841.31
2023-02-17T13:02:59.899Z,101862.78
2023-02-17T13:05:34.010Z,101852.66
2023-02-17T13:08:08.710Z,101843.69
2023-02-17T13:10:40.940Z,101834.63
2023-02-17T13:13:14.422Z,101843.47
2023-02-17T13:15:44.888Z,101855.44
2023-02-17T13:18:27.093Z,101844.50
2023-02-17T13:21:01.593Z,101856.88
2023-02-17T13:23:37.672Z,101853.75
2023-02-17T13:26:18.012Z,101858.84
2023-02-17T13:28:49.297Z,101849.94
2023-02-17T13:31:20.771Z,101845.34
2023-02-17T13:33:53.202Z,101841.09
2023-02-17T13:36:36.012Z,101855.53
2023-02-17T13:39:08.528Z,101858.16
2023-02-17T13:41:48.115Z,101865.50
2023-02-17T13:44:30.605Z,101877.94
2023-02-17T13:47:03.004Z,101890.25
2023-02-17T13:49:35.192Z,101895.28
2023-02-17T13:52:13.342Z,101895.56
2023-02-17T13:54:43.852Z,101909.50
2023-02-17T13:57:25.721Z,101907.75
2023-02-17T14:00:11.493Z,101918.50
2023-02-17T14:02:47.371Z,101927.41
2023-02-17T14:05:21.872Z,101933.91
2023-02-17T14:07:51.213Z,101929.97
2023-02-17T14:10:26.272Z,101929.88
2023-02-17T14:12:56.264Z,101929.00
2023-02-17T14:15:29.360Z,101935.88
2023-02-17T14:17:58.278Z,101938.53
2023-02-17T14:20:33.250Z,101947.75
2023-02-17T14:23:06.045Z,101948.81
2023-02-17T14:25:38.106Z,101964.28
2023-02-17T14:28:19.432Z,101969.97
2023-02-17T14:30:49.828Z,101963.22
2023-02-17T14:33:24.572Z,101959.16
2023-02-17T14:35:55.963Z,101980.78
2023-02-17T14:38:27.685Z,101974.38
2023-02-17T14:40:56.492Z,101978.81
2023-02-17T14:43:25.936Z,101989.19
2023-02-17T14:45:55.660Z,101997.22
2023-02-17T14:48:27.620Z,101983.53
2023-02-17T14:50:57.953Z,101983.06
2023-02-17T14:53:30.158Z,101979.03
2023-02-17T14:56:02.914Z,101982.34
2023-02-17T14:58:32.540Z,101965.94
2023-02-17T15:01:02.791Z,101961.53
2023-02-17T15:03:31.111Z,101962.94
2023-02-17T15:06:00.496Z,101968.72
2023-02-17T15:08:34.562Z,101982.09
2023-02-17T15:11:03.605Z,101972.28
2023-02-17T15:13:32.988Z,101973.41
2023-02-17T15:16:02.822Z,101968.63
2023-02-17T15:18:31.220Z,101984.59
2023-02-17T15:20:59.583Z,102002.06
2023-02-17T15:23:31.980Z,102002.41
2023-02-17T15:26:00.499Z,101992.69
2023-02-17T15:28:28.814Z,101988.69
2023-02-17T15:30:57.977Z,102000.38
2023-02-17T15:33:27.700Z,102000.38
2023-02-17T15:35:56.426Z,102001.50
2023-02-17T15:38:27.280Z,101993.34
2023-02-17T15:40:58.694Z,102011.25
2023-02-17T15:46:13.284Z,102015.81
2023-02-17T15:48:44.560Z,102007.28
2023-02-17T15:51:15.248Z,101994.06
2023-02-17T15:53:43.907Z,102006.72
2023-02-17T15:56:16.086Z,102010.16
2023-02-17T15:58:44.853Z,102003.13
2023-02-17T16:01:23.740Z,101995.78
2023-02-17T16:03:53.875Z,101993.84
2023-02-17T16:06:22.448Z,102005.84
2023-02-17T16:08:50.833Z,102018.66
2023-02-17T16:11:21.177Z,102018.53
2023-02-17T16:13:49.672Z,102013.78
2023-02-17T16:16:21.595Z,102016.03
2023-02-17T16:18:52.584Z,102025.34
2023-02-17T16:21:20.962Z,102021.03
2023-02-17T16:23:49.290Z,102038.16
2023-02-17T16:26:26.187Z,102040.06
2023-02-17T16:28:54.937Z,102043.13
2023-02-17T16:31:23.767Z,102046.94
2023-02-17T16:33:59.525Z,102046.16
2023-02-17T16:36:32.236Z,102059.28
2023-02-17T16:39:05.011Z,102048.00
2023-02-17T16:41:33.438Z,102057.75
2023-02-17T16:44:01.814Z,102055.66
2023-02-17T16:46:33.181Z,102054.09
2023-02-17T16:49:04.903Z,102068.81
2023-02-17T16:51:33.262Z,102076.53
2023-02-17T16:54:01.580Z,102079.59
2023-02-17T16:56:38.854Z,102076.06
2023-02-17T16:59:07.487Z,102090.78
2023-02-17T17:01:35.797Z,102092.69
2023-02-17T17:04:07.216Z,102077.53
2023-02-17T17:06:37.511Z,102086.03
2023-02-17T17:09:06.522Z,102091.81
2023-02-17T17:11:34.997Z,102089.91
2023-02-17T17:14:03.386Z,102097.56
2023-02-17T17:16:40.784Z,102108.44
2023-02-17T17:19:09.408Z,102110.34
2023-02-17T17:21:37.741Z,102113.78
2023-02-17T17:24:06.090Z,102120.00
2023-02-17T17:26:39.294Z,102114.56
2023-02-17T17:29:09.027Z,102121.13
2023-02-17T17:31:37.481Z,102120.00
2023-02-17T17:34:07.495Z,102131.28
2023-02-17T17:36:39.769Z,102127.44
2023-02-17T17:39:18.938Z,102142.16
2023-02-17T17:41:48.080Z,102135.59
2023-02-17T17:44:16.781Z,102138.00
2023-02-17T17:46:45.448Z,102137.66
2023-02-17T17:49:18.102Z,102145.03
2023-02-17T17:51:46.743Z,102145.81
2023-02-17T17:54:15.011Z,102151.25
2023-02-17T17:56:45.121Z,102156.69
2023-02-17T17:59:15.254Z,102156.69
2023-02-17T18:01:45.723Z,102160.53
2023-02-17T18:04:16.005Z,102163.56
2023-02-17T18:06:47.927Z,102156.25
2023-02-17T18:09:31.226Z,102166.63
2023-02-17T18:12:05.763Z,102168.22
2023-02-17T18:14:34.925Z,102183.41
2023-02-17T18:17:03.336Z,102182.59
2023-02-17T18:19:35.797Z,102180.69
2023-02-17T18:22:04.383Z,102186.13
2023-02-17T18:24:32.716Z,102183.41
2023-02-17T18:27:01.043Z,102183.41
2023-02-17T18:29:29.383Z,102183.72
2023-02-17T18:31:59.141Z,102192.66
2023-02-17T18:34:27.875Z,102197.31
2023-02-17T18:36:57.533Z,102198.09
2023-02-17T18:39:25.844Z,102217.13
2023-02-17T18:41:57.174Z,102207.88
2023-02-17T18:44:25.478Z,102202.09
2023-02-17T18:46:53.810Z,102204.03
2023-02-17T18:49:22.162Z,102211.03
2023-02-17T18:51:51.993Z,102213.31
2023-02-17T18:54:31.230Z,102219.75
2023-02-17T18:56:59.569Z,102220.06
2023-02-17T18:59:27.922Z,102221.50
2023-02-17T19:01:56.216Z,102222.31
2023-02-17T19:04:24.578Z,102216.88
2023-02-17T19:06:52.916Z,102219.13
2023-02-17T19:09:22.576Z,102226.16
2023-02-17T19:11:50.885Z,102246.28
2023-02-17T19:14:19.209Z,102233.88
2023-02-17T19:16:47.493Z,102233.38
2023-02-17T19:19:15.803Z,102222.06
2023-02-17T19:21:44.124Z,102223.19
2023-02-17T19:24:14.517Z,102227.47
2023-02-17T19:26:44.763Z,102227.06
2023-02-17T19:29:13.121Z,102228.28
2023-02-17T19:31:41.617Z,102234.84
2023-02-17T19:34:10.138Z,102237.56
2023-02-17T19:36:38.402Z,102243.19
2023-02-17T19:39:07.811Z,102241.59
2023-02-17T19:41:36.212Z,102231.88
2023-02-17T19:44:06.259Z,102247.25
2023-02-17T19:46:34.944Z,102245.97
2023-02-17T19:49:03.998Z,102240.56
2023-02-17T19:51:32.656Z,102243.25
2023-02-17T19:54:02.144Z,102244.84
2023-02-17T19:56:35.381Z,102247.56
2023-02-17T19:59:05.688Z,102244.84
2023-02-17T20:01:35.384Z,102256.84
2023-02-17T20:04:06.197Z,102247.13
2023-02-17T20:06:39.871Z,102250.63
2023-02-17T20:09:11.271Z,102245.56
2023-02-17T20:11:39.646Z,102255.47
2023-02-17T20:14:10.988Z,102247.50
2023-02-17T20:16:40.800Z,102242.75
2023-02-17T20:19:09.214Z,102243.41
2023-02-17T20:21:39.922Z,102253.81
2023-02-17T20:24:08.454Z,102249.50
2023-02-17T20:26:41.875Z,102263.06
2023-02-17T20:29:13.156Z,102256.84
2023-02-17T20:31:43.191Z,102269.97
2023-02-17T20:34:28.149Z,102263.28
2023-02-17T20:36:56.862Z,102260.88
2023-02-17T20:39:26.643Z,102261.69
2023-02-17T20:41:55.949Z,102271.28
2023-02-17T20:44:27.957Z,102275.91
2023-02-17T20:46:56.991Z,102275.44
2023-02-17T20:49:26.119Z,102263.00
2023-02-17T20:51:54.523Z,102264.91
2023-02-17T20:54:24.755Z,102267.94
2023-02-17T20:56:53.380Z,102262.88
2023-02-17T20:59:21.873Z,102263.19
2023-02-17T21:01:51.527Z,102259.22
2023-02-17T21:04:19.852Z,102268.81
2023-02-17T21:06:48.222Z,102282.72
2023-02-17T21:09:19.077Z,102280.34
2023-02-17T21:11:47.951Z,102264.34
2023-02-17T21:14:16.762Z,102279.84
2023-02-17T21:16:45.480Z,102274.75
2023-02-17T21:19:15.506Z,102275.53
2023-02-17T21:21:44.090Z,102289.56
2023-02-17T21:24:12.624Z,102295.00
2023-02-17T21:26:41.070Z,102295.00
2023-02-17T21:29:09.699Z,102298.19
2023-02-17T21:31:38.167Z,102305.22
2023-02-17T21:34:07.226Z,102305.66
2023-02-17T21:36:36.982Z,102297.50
2023-02-17T21:39:06.110Z,102295.28
2023-02-17T21:41:34.536Z,102282.81
2023-02-17T21:44:20.500Z,102273.59
2023-02-17T21:46:48.781Z,102277.38
2023-02-17T21:49:17.074Z,102293.69
2023-02-17T21:51:46.896Z,102282.03
2023-02-17T21:54:15.585Z,102275.81
2023-02-17T21:56:44.227Z,102271.16
2023-02-17T21:59:12.533Z,102273.59
2023-02-17T22:01:40.975Z,102279.00
2023-02-17T22:04:09.685Z,102287.16
2023-02-17T22:06:41.346Z,102279.00
2023-02-17T22:09:17.966Z,102290.34
2023-02-17T22:11:47.693Z,102283.94
2023-02-17T22:14:19.198Z,102283.19
2023-02-17T22:16:49.862Z,102274.25
2023-02-17T22:19:21.047Z,102278.88
2023-02-17T22:21:49.969Z,102268.81
2023-02-17T22:24:20.675Z,102268.34
2023-02-17T22:26:50.167Z,102276.50
2023-02-17T22:29:18.494Z,102261.34
2023-02-17T22:31:46.936Z,102268.34
2023-02-17T22:34:16.128Z,102260.22
2023-02-17T22:36:44.488Z,102268.81
2023-02-17T22:39:13.031Z,102261.00
2023-02-17T22:41:42.725Z,102267.22
2023-02-17T22:44:11.043Z,102277.63
2023-02-17T22:46:39.562Z,102273.28
2023-02-17T22:49:07.917Z,102274.91
2023-02-17T22:51:39.409Z,102264.66
2023-02-17T22:54:09.266Z,102272.81
2023-02-17T22:56:37.860Z,102258.47
2023-02-17T22:59:07.920Z,102256.88
2023-02-17T23:01:37.983Z,102265.47
2023-02-17T23:04:07.205Z,102257.69
2023-02-17T23:06:38.797Z,102263.53
2023-02-17T23:09:10.082Z,102270.00
2023-02-17T23:11:58.264Z,102270.00
2023-02-17T23:14:32.967Z,102268.06
2023-02-17T23:17:04.436Z,102259.94
2023-02-17T23:19:33.400Z,102269.19
2023-02-17T23:22:07.532Z,102262.94
2023-02-17T23:24:36.319Z,102254.50
2023-02-17T23:27:05.326Z,102252.09
2023-02-17T23:29:35.252Z,102261.34
2023-02-17T23:32:04.347Z,102252.41
2023-02-17T23:34:32.804Z,102258.97
2023-02-17T23:37:02.855Z,102260.56
2023-02-17T23:39:31.145Z,102245.41
2023-02-17T23:41:59.458Z,102257.41
2023-02-17T23:44:27.691Z,102258.97
2023-02-17T23:46:57.406Z,102243.16
2023-02-17T23:49:25.629Z,102235.00
2023-02-17T23:51:53.926Z,102255.13
2023-02-17T23:54:22.164Z,102234.53
2023-02-17T23:56:50.446Z,102228.00
2023-02-17T23:59:18.728Z,102233.41
